Time;durP1;ratioP1;P1;durP2;ratioP2;P2;SDS_P1;SDS_P2;PMS_P1;PMS_P2;Temp;Humidity;BMP_temperature;BMP_pressure;BME280_temperature;BME280_humidity;BME280_pressure;Samples;Min_cycle;Max_cycle;Signal;HPM_P1;HPM_P2
2023/12/22 00:01:20;;;;;;;25.40;5.75;;;5.40;99.90;;;;;;5097111;28;20058;-72
2023/12/22 00:03:47;;;;;;;17.17;6.05;;;5.40;99.90;;;;;;5093372;28;20492;-72
2023/12/22 00:06:14;;;;;;;17.65;4.47;;;5.50;99.90;;;;;;5077833;28;20060;-72
2023/12/22 00:08:41;;;;;;;16.85;4.50;;;5.50;99.90;;;;;;5077346;28;20071;-72
2023/12/22 00:11:08;;;;;;;18.38;4.53;;;5.50;99.90;;;;;;5077567;28;20047;-72
2023/12/22 00:13:36;;;;;;;18.80;3.92;;;5.50;99.90;;;;;;5077567;28;20052;-72
2023/12/22 00:16:03;;;;;;;18.27;4.57;;;5.50;99.90;;;;;;5075403;28;20438;-72
2023/12/22 00:18:30;;;;;;;21.60;5.38;;;5.40;99.90;;;;;;5077175;28;20408;-73
2023/12/22 00:20:57;;;;;;;26.08;5.05;;;5.40;99.90;;;;;;5076162;28;20048;-73
2023/12/22 00:23:24;;;;;;;28.70;5.75;;;5.30;99.90;;;;;;5076465;28;20554;-72
2023/12/22 00:25:51;;;;;;;26.45;5.93;;;5.20;99.90;;;;;;5077665;28;20540;-72
2023/12/22 00:28:18;;;;;;;19.98;4.70;;;5.20;99.90;;;;;;5075539;28;20044;-72
2023/12/22 00:30:46;;;;;;;17.27;4.15;;;5.20;99.90;;;;;;5075371;28;20800;-75
2023/12/22 00:33:13;;;;;;;19.05;4.15;;;5.20;99.90;;;;;;5077020;28;20093;-73
2023/12/22 00:35:40;;;;;;;15.25;3.92;;;5.20;99.90;;;;;;5096527;28;20054;-73
2023/12/22 00:38:07;;;;;;;15.18;4.10;;;5.20;99.90;;;;;;5095413;28;20081;-74
2023/12/22 00:40:34;;;;;;;21.45;4.72;;;5.20;99.90;;;;;;5096581;28;20048;-74
2023/12/22 00:43:01;;;;;;;14.48;4.20;;;5.20;99.90;;;;;;5096193;28;20055;-74
2023/12/22 00:45:28;;;;;;;8.50;3.42;;;5.30;99.90;;;;;;5095560;28;20104;-74
2023/12/22 00:47:56;;;;;;;12.20;2.97;;;5.30;99.90;;;;;;5095505;28;20047;-74
2023/12/22 00:50:23;;;;;;;8.45;2.38;;;5.20;99.90;;;;;;5096098;28;20055;-74
2023/12/22 00:52:50;;;;;;;7.50;2.30;;;5.30;99.90;;;;;;5074137;28;20052;-73
2023/12/22 00:55:16;;;;;;;9.48;3.25;;;5.30;99.90;;;;;;5076823;28;20043;-73
2023/12/22 00:57:44;;;;;;;9.65;2.33;;;5.30;99.90;;;;;;5094623;28;20047;-73
2023/12/22 01:00:12;;;;;;;8.52;1.92;;;5.60;99.90;;;;;;5074182;28;20047;-74
2023/12/22 01:02:39;;;;;;;12.10;2.40;;;5.20;99.90;;;;;;5076149;28;20076;-73
2023/12/22 01:05:08;;;;;;;9.77;2.92;;;5.10;99.90;;;;;;5076364;28;20097;-73
2023/12/22 01:07:35;;;;;;;10.30;3.78;;;5.10;99.90;;;;;;5094611;28;20098;-73
2023/12/22 01:10:03;;;;;;;20.73;3.38;;;5.00;99.90;;;;;;5076809;28;20048;-73
2023/12/22 01:12:30;;;;;;;13.95;3.63;;;5.00;99.90;;;;;;5076065;28;20048;-72
2023/12/22 01:14:58;;;;;;;26.92;4.45;;;5.00;99.90;;;;;;5076542;28;20048;-71
2023/12/22 01:17:24;;;;;;;21.40;4.47;;;5.00;99.90;;;;;;5076115;28;20086;-73
2023/12/22 01:19:51;;;;;;;17.83;4.47;;;5.10;99.90;;;;;;5073836;28;20048;-73
2023/12/22 01:22:20;;;;;;;13.23;4.07;;;5.10;99.90;;;;;;5076470;28;20071;-72
2023/12/22 01:24:46;;;;;;;21.70;5.30;;;5.10;99.90;;;;;;5074624;28;20453;-72
2023/12/22 01:27:13;;;;;;;17.15;4.88;;;5.00;99.90;;;;;;5075434;28;20454;-72
2023/12/22 01:29:40;;;;;;;18.10;4.50;;;5.10;99.90;;;;;;5076394;28;20048;-73
2023/12/22 01:32:07;;;;;;;20.58;4.95;;;5.00;99.90;;;;;;5095201;28;20080;-72
2023/12/22 01:34:34;;;;;;;19.92;4.50;;;5.10;99.90;;;;;;5094825;28;20052;-72
2023/12/22 01:37:01;;;;;;;19.83;4.72;;;5.10;99.90;;;;;;5074105;28;20039;-73
2023/12/22 01:39:30;;;;;;;17.60;4.60;;;5.20;99.90;;;;;;5093886;28;20048;-72
2023/12/22 01:41:56;;;;;;;20.92;4.43;;;5.30;99.90;;;;;;5075648;28;20052;-72
2023/12/22 01:44:23;;;;;;;19.88;4.18;;;5.30;99.90;;;;;;5075885;28;20052;-72
2023/12/22 01:46:51;;;;;;;23.70;5.65;;;5.40;99.90;;;;;;5076015;28;20098;-73
2023/12/22 01:49:18;;;;;;;19.17;4.93;;;5.30;99.90;;;;;;5075474;28;20055;-72
2023/12/22 01:51:45;;;;;;;18.73;4.88;;;5.20;99.90;;;;;;5076019;28;20064;-73
2023/12/22 01:54:15;;;;;;;18.23;4.82;;;5.00;99.90;;;;;;5093247;28;20098;-73
2023/12/22 01:56:43;;;;;;;18.92;4.88;;;4.90;99.90;;;;;;5073426;28;20083;-72
2023/12/22 01:59:12;;;;;;;26.00;5.45;;;4.70;99.90;;;;;;5075388;28;20071;-72
2023/12/22 02:01:40;;;;;;;18.73;5.43;;;5.70;99.90;;;;;;5074999;28;20043;-72
2023/12/22 02:04:07;;;;;;;29.27;6.32;;;4.70;99.90;;;;;;5075608;28;20113;-71
2023/12/22 02:06:36;;;;;;;21.67;6.60;;;4.80;99.90;;;;;;5075571;28;20113;-72
2023/12/22 02:09:04;;;;;;;31.33;5.10;;;4.80;99.90;;;;;;5074733;28;20067;-72
2023/12/22 02:11:31;;;;;;;23.27;5.78;;;4.90;99.90;;;;;;5073709;28;20087;-72
2023/12/22 02:13:59;;;;;;;27.42;5.90;;;5.00;99.90;;;;;;5075324;28;20059;-72
2023/12/22 02:16:33;;;;;;;36.05;6.88;;;5.10;99.90;;;;;;5074882;28;20059;-72
2023/12/22 02:19:05;;;;;;;26.98;7.95;;;5.20;99.90;;;;;;5073978;28;20072;-72
2023/12/22 02:21:32;;;;;;;30.83;6.50;;;5.10;99.90;;;;;;5075245;28;20048;-72
2023/12/22 02:24:00;;;;;;;21.25;5.47;;;5.10;99.90;;;;;;5074493;28;20113;-71
2023/12/22 02:26:34;;;;;;;16.38;4.53;;;5.00;99.90;;;;;;5075379;28;20056;-72
2023/12/22 02:29:02;;;;;;;12.55;4.28;;;4.90;99.90;;;;;;5075298;28;20044;-72
2023/12/22 02:31:38;;;;;;;17.77;3.70;;;4.80;99.90;;;;;;5074758;28;20048;-72
2023/12/22 02:34:08;;;;;;;14.00;3.47;;;4.70;99.90;;;;;;5075230;28;20052;-71
2023/12/22 02:36:39;;;;;;;15.30;3.97;;;4.60;99.90;;;;;;5074809;28;20446;-73
2023/12/22 02:39:09;;;;;;;23.58;4.03;;;4.70;99.90;;;;;;5093894;28;20058;-72
2023/12/22 02:41:36;;;;;;;18.23;4.40;;;4.60;99.90;;;;;;5093798;28;20051;-72
2023/12/22 02:44:04;;;;;;;16.60;4.57;;;4.60;99.90;;;;;;5093424;28;20093;-73
2023/12/22 02:46:31;;;;;;;16.88;4.45;;;4.70;99.90;;;;;;5094008;28;20039;-74
2023/12/22 02:48:58;;;;;;;18.70;5.47;;;4.70;99.90;;;;;;5094035;28;20085;-73
2023/12/22 02:51:24;;;;;;;18.65;4.65;;;4.80;99.90;;;;;;5072160;28;20093;-74
2023/12/22 02:53:51;;;;;;;22.05;6.32;;;4.80;99.90;;;;;;5074193;28;20096;-73
2023/12/22 02:56:20;;;;;;;25.60;6.10;;;4.80;99.90;;;;;;5074683;28;20101;-73
2023/12/22 02:58:46;;;;;;;24.02;5.00;;;4.80;99.90;;;;;;5074115;28;20036;-74
2023/12/22 03:01:13;;;;;;;22.13;5.05;;;4.90;99.90;;;;;;5074893;28;20048;-73
2023/12/22 03:03:40;;;;;;;22.88;7.07;;;5.00;99.90;;;;;;5093964;28;20376;-72
2023/12/22 03:06:07;;;;;;;17.30;4.32;;;5.30;99.90;;;;;;5093276;28;20578;-74
2023/12/22 03:08:34;;;;;;;5.90;1.67;;;4.70;99.90;;;;;;5093865;28;20488;-74
2023/12/22 03:11:01;;;;;;;7.55;1.83;;;4.40;99.90;;;;;;5093755;28;20048;-74
2023/12/22 03:13:29;;;;;;;4.65;1.52;;;4.30;99.90;;;;;;5092949;28;20055;-74
2023/12/22 03:15:56;;;;;;;5.88;1.83;;;4.00;99.90;;;;;;5093663;28;20048;-73
2023/12/22 03:18:23;;;;;;;6.70;1.65;;;3.90;99.90;;;;;;5093240;28;20415;-74
2023/12/22 03:20:49;;;;;;;11.82;1.98;;;3.80;99.90;;;;;;5093406;28;20400;-73
2023/12/22 03:23:16;;;;;;;18.08;2.88;;;3.70;99.90;;;;;;5093471;28;20104;-73
2023/12/22 03:25:43;;;;;;;20.50;4.40;;;3.60;99.90;;;;;;5092764;28;20047;-72
2023/12/22 03:28:10;;;;;;;17.85;3.50;;;3.70;99.90;;;;;;5093224;28;20089;-73
2023/12/22 03:30:38;;;;;;;17.23;3.17;;;5.10;99.90;;;;;;5093247;28;20052;-72
2023/12/22 03:33:06;;;;;;;23.10;4.53;;;3.60;99.90;;;;;;5092878;28;20097;-73
2023/12/22 03:35:33;;;;;;;21.80;4.13;;;3.70;99.90;;;;;;5093095;28;20501;-72
2023/12/22 03:38:00;;;;;;;16.92;3.83;;;3.80;99.90;;;;;;5093281;28;20085;-72
2023/12/22 03:40:27;;;;;;;19.23;3.78;;;3.90;99.90;;;;;;5092591;28;20055;-71
2023/12/22 03:42:54;;;;;;;9.52;2.33;;;5.00;99.90;;;;;;5093658;28;20048;-73
2023/12/22 03:45:21;;;;;;;11.48;3.70;;;4.50;99.90;;;;;;5093234;28;20108;-73
2023/12/22 03:47:49;;;;;;;13.65;3.10;;;4.30;99.90;;;;;;5092259;28;20040;-72
2023/12/22 03:50:16;;;;;;;9.60;3.53;;;4.40;99.90;;;;;;5093552;28;20109;-71
2023/12/22 03:52:43;;;;;;;9.10;3.15;;;4.60;99.90;;;;;;5093383;28;20047;-72
2023/12/22 03:55:09;;;;;;;7.55;2.83;;;4.60;99.90;;;;;;5092903;28;20047;-73
2023/12/22 03:57:36;;;;;;;17.38;3.65;;;4.60;99.90;;;;;;5093302;28;20111;-72
2023/12/22 04:00:05;;;;;;;9.63;3.53;;;4.60;99.90;;;;;;5093203;28;20117;-73
2023/12/22 04:02:32;;;;;;;19.58;4.43;;;4.70;99.90;;;;;;5092877;28;20051;-74
2023/12/22 04:05:00;;;;;;;16.15;4.18;;;4.70;99.90;;;;;;5094368;28;20039;-74
2023/12/22 04:07:27;;;;;;;20.92;4.63;;;4.70;99.90;;;;;;5093632;28;20185;-73
2023/12/22 04:09:54;;;;;;;17.83;4.93;;;4.70;99.90;;;;;;5077269;28;20048;-73
2023/12/22 04:12:20;;;;;;;22.75;5.05;;;4.80;99.90;;;;;;5077759;28;20048;-73
2023/12/22 04:14:47;;;;;;;20.20;4.05;;;4.90;99.90;;;;;;5095641;28;20044;-77
2023/12/22 04:17:14;;;;;;;25.50;5.60;;;4.90;99.90;;;;;;5077622;28;20118;-74
2023/12/22 04:19:41;;;;;;;24.63;4.93;;;4.90;99.90;;;;;;5077460;28;20059;-72
2023/12/22 04:22:09;;;;;;;16.00;4.70;;;4.90;99.90;;;;;;5076735;28;20044;-73
2023/12/22 04:24:36;;;;;;;22.40;5.25;;;4.90;99.90;;;;;;5077281;28;20385;-72
2023/12/22 04:27:03;;;;;;;27.30;5.90;;;5.00;99.90;;;;;;5077751;28;20101;-74
2023/12/22 04:29:31;;;;;;;24.20;5.60;;;5.00;99.90;;;;;;5077498;28;20127;-73
2023/12/22 04:31:58;;;;;;;24.08;6.20;;;5.10;99.90;;;;;;5096719;28;20044;-74
2023/12/22 04:34:25;;;;;;;20.98;7.22;;;5.20;99.90;;;;;;5072779;28;20045;-72
2023/12/22 04:36:52;;;;;;;20.40;4.85;;;5.20;99.90;;;;;;5076542;28;20089;-73
2023/12/22 04:39:20;;;;;;;15.40;4.53;;;5.20;99.90;;;;;;5076947;28;20040;-73
2023/12/22 04:41:47;;;;;;;20.42;3.90;;;5.40;99.90;;;;;;5077339;28;20105;-73
2023/12/22 04:44:14;;;;;;;27.27;6.60;;;5.30;99.90;;;;;;5075363;28;20094;-75
2023/12/22 04:46:40;;;;;;;24.92;5.25;;;5.40;99.90;;;;;;5074883;28;20055;-75
2023/12/22 04:49:07;;;;;;;26.15;5.97;;;5.50;99.90;;;;;;5077103;28;20048;-74
2023/12/22 04:51:34;;;;;;;23.00;4.90;;;5.50;99.90;;;;;;5087056;28;20063;-73
2023/12/22 04:54:01;;;;;;;23.45;5.93;;;5.50;99.90;;;;;;5096092;28;20047;-74
2023/12/22 04:56:29;;;;;;;23.75;6.13;;;5.50;99.90;;;;;;5096048;28;20450;-73
2023/12/22 04:58:56;;;;;;;15.10;4.13;;;5.50;99.90;;;;;;5095195;28;20066;-74
2023/12/22 05:01:23;;;;;;;16.65;3.22;;;5.50;99.90;;;;;;5095898;28;20052;-75
2023/12/22 05:03:50;;;;;;;19.23;5.38;;;5.60;99.90;;;;;;5096034;28;20055;-75
2023/12/22 05:06:17;;;;;;;16.50;3.60;;;5.70;99.90;;;;;;5094904;28;20047;-73
2023/12/22 05:08:43;;;;;;;18.00;5.03;;;5.60;99.90;;;;;;5107970;28;20108;-73
2023/12/22 05:11:10;;;;;;;21.55;4.20;;;5.70;99.90;;;;;;5095128;28;20044;-73
2023/12/22 05:13:40;;;;;;;25.27;4.97;;;5.80;99.90;;;;;;5071344;28;20105;-72
2023/12/22 05:16:07;;;;;;;14.20;4.53;;;5.80;99.90;;;;;;5072180;28;20125;-72
2023/12/22 05:18:34;;;;;;;16.90;4.13;;;5.90;99.90;;;;;;5074934;28;20558;-72
2023/12/22 05:21:00;;;;;;;22.50;4.75;;;5.90;99.90;;;;;;5074242;28;20052;-72
2023/12/22 05:23:27;;;;;;;24.52;5.38;;;5.90;99.90;;;;;;5073677;28;20128;-73
2023/12/22 05:25:54;;;;;;;25.65;5.68;;;5.90;99.90;;;;;;5073673;28;20048;-73
2023/12/22 05:28:21;;;;;;;25.00;4.97;;;5.90;99.90;;;;;;5075120;28;20494;-72
2023/12/22 05:30:49;;;;;;;24.25;4.80;;;5.90;99.90;;;;;;5073366;28;20443;-73
2023/12/22 05:33:16;;;;;;;22.73;4.97;;;6.00;99.90;;;;;;5080962;28;20109;-73
2023/12/22 05:35:43;;;;;;;13.75;4.22;;;6.00;99.90;;;;;;5073020;28;20052;-73
2023/12/22 05:38:10;;;;;;;18.92;4.35;;;6.00;99.90;;;;;;5074095;28;20097;-73
2023/12/22 05:40:37;;;;;;;21.00;4.10;;;6.00;99.90;;;;;;5073231;28;20089;-74
2023/12/22 05:43:04;;;;;;;20.58;5.00;;;6.00;99.90;;;;;;5068973;28;20094;-74
2023/12/22 05:45:31;;;;;;;19.55;4.63;;;6.00;99.90;;;;;;5070660;28;20056;-74
2023/12/22 05:47:59;;;;;;;17.13;4.53;;;5.90;99.90;;;;;;5067609;28;20496;-74
2023/12/22 05:50:26;;;;;;;16.08;4.57;;;5.90;99.90;;;;;;5076897;28;20056;-74
2023/12/22 05:52:54;;;;;;;14.60;4.07;;;6.00;99.90;;;;;;5070711;28;20103;-74
2023/12/22 05:55:20;;;;;;;17.95;4.93;;;6.00;99.90;;;;;;5069096;28;20049;-74
2023/12/22 05:57:47;;;;;;;16.23;3.58;;;6.10;99.90;;;;;;5070911;28;20049;-74
2023/12/22 06:00:15;;;;;;;17.20;3.97;;;6.00;99.90;;;;;;5069147;28;20099;-73
2023/12/22 06:02:42;;;;;;;13.93;3.85;;;6.00;99.90;;;;;;5070568;28;20053;-73
2023/12/22 06:05:11;;;;;;;17.65;4.57;;;6.00;99.90;;;;;;5069230;28;20059;-74
2023/12/22 06:07:38;;;;;;;15.02;3.53;;;6.10;99.90;;;;;;5070196;28;20051;-74
2023/12/22 06:10:05;;;;;;;20.25;5.13;;;6.10;99.90;;;;;;5070645;28;20041;-72
2023/12/22 06:12:32;;;;;;;21.35;4.68;;;6.20;99.90;;;;;;5067516;28;20060;-72
2023/12/22 06:14:59;;;;;;;18.02;4.40;;;6.10;99.90;;;;;;5068627;28;20060;-73
2023/12/22 06:17:26;;;;;;;14.02;4.32;;;6.20;99.90;;;;;;5068075;28;20402;-74
2023/12/22 06:19:53;;;;;;;26.95;4.45;;;6.10;99.90;;;;;;5067588;28;20041;-73
2023/12/22 06:22:22;;;;;;;11.45;3.90;;;6.10;99.90;;;;;;5069288;28;20045;-72
2023/12/22 06:24:49;;;;;;;21.52;5.63;;;6.20;99.90;;;;;;5075060;28;20493;-73
2023/12/22 06:27:15;;;;;;;23.75;5.95;;;6.10;99.90;;;;;;5069291;28;20045;-72
2023/12/22 06:29:42;;;;;;;17.80;4.47;;;6.10;99.90;;;;;;5069025;28;20401;-72
2023/12/22 06:32:09;;;;;;;21.73;4.65;;;6.20;99.90;;;;;;5070053;28;20086;-73
2023/12/22 06:34:36;;;;;;;27.48;4.75;;;6.30;99.90;;;;;;5073749;28;20048;-73
2023/12/22 06:37:03;;;;;;;23.70;4.75;;;6.10;99.90;;;;;;5070095;28;20041;-71
2023/12/22 06:39:31;;;;;;;18.35;4.55;;;6.10;99.90;;;;;;5069640;28;20098;-73
2023/12/22 06:41:58;;;;;;;20.88;5.55;;;6.20;99.90;;;;;;5062618;28;20629;-73
2023/12/22 06:44:25;;;;;;;18.95;4.32;;;6.20;99.90;;;;;;5069738;28;20071;-73
2023/12/22 06:46:52;;;;;;;16.75;4.57;;;6.20;99.90;;;;;;5088967;28;20056;-71
2023/12/22 06:49:20;;;;;;;15.43;3.30;;;6.20;99.90;;;;;;5072415;28;20040;-72
2023/12/22 06:51:47;;;;;;;15.25;3.72;;;6.20;99.90;;;;;;5068518;28;20055;-71
2023/12/22 06:54:14;;;;;;;16.08;4.63;;;6.20;99.90;;;;;;5067815;28;20060;-72
2023/12/22 06:56:42;;;;;;;14.07;3.50;;;6.10;99.90;;;;;;5067321;28;20713;-73
2023/12/22 06:59:11;;;;;;;21.95;5.82;;;6.10;99.90;;;;;;5085672;28;20040;-73
2023/12/22 07:01:38;;;;;;;9.65;3.63;;;6.20;99.90;;;;;;5071849;28;20049;-73
2023/12/22 07:04:06;;;;;;;14.70;3.92;;;6.20;99.90;;;;;;5076084;28;20104;-72
2023/12/22 07:06:34;;;;;;;11.30;2.75;;;6.20;99.90;;;;;;5082952;28;20063;-73
2023/12/22 07:09:31;;;;;;;15.63;3.65;;;6.20;99.90;;;;;;5073517;28;20494;-74
2023/12/22 07:11:59;;;;;;;12.18;3.83;;;6.20;99.90;;;;;;5068713;28;20485;-72
2023/12/22 07:14:26;;;;;;;16.35;3.67;;;6.10;99.90;;;;;;5070625;28;20053;-73
2023/12/22 07:16:53;;;;;;;15.80;4.30;;;6.10;99.90;;;;;;5073850;28;20056;-74
2023/12/22 07:19:20;;;;;;;19.25;4.15;;;6.10;99.90;;;;;;5073151;28;20085;-74
2023/12/22 07:21:47;;;;;;;19.95;3.90;;;6.20;99.90;;;;;;5071541;28;20389;-73
2023/12/22 07:24:14;;;;;;;19.83;3.60;;;6.20;99.90;;;;;;5071977;28;20048;-75
2023/12/22 07:26:40;;;;;;;20.92;4.30;;;6.20;99.90;;;;;;5072987;28;20044;-73
2023/12/22 07:29:09;;;;;;;14.25;3.58;;;6.20;99.90;;;;;;5078397;28;20450;-72
2023/12/22 07:31:36;;;;;;;13.90;3.80;;;6.30;99.90;;;;;;5073128;28;20064;-74
2023/12/22 07:34:03;;;;;;;21.58;3.75;;;6.20;99.90;;;;;;5072098;28;20056;-73
2023/12/22 07:36:30;;;;;;;12.10;2.97;;;6.20;99.90;;;;;;5071921;28;20101;-73
2023/12/22 07:38:59;;;;;;;18.63;4.35;;;6.30;99.90;;;;;;5075336;28;20040;-73
2023/12/22 07:41:26;;;;;;;10.05;3.25;;;6.30;99.90;;;;;;5078283;28;20079;-73
2023/12/22 07:43:52;;;;;;;10.88;3.47;;;6.30;99.90;;;;;;5096243;28;20101;-73
2023/12/22 07:46:22;;;;;;;14.00;3.63;;;6.30;99.90;;;;;;5077408;28;20055;-73
2023/12/22 07:48:48;;;;;;;15.98;3.50;;;6.30;99.90;;;;;;5074496;28;20123;-73
2023/12/22 07:51:15;;;;;;;14.10;3.80;;;6.30;99.90;;;;;;5077132;28;20090;-73
2023/12/22 07:53:43;;;;;;;23.58;4.28;;;6.30;99.90;;;;;;5076202;28;20044;-72
2023/12/22 07:56:10;;;;;;;17.58;3.80;;;6.30;99.90;;;;;;5077765;28;20063;-72
2023/12/22 07:58:37;;;;;;;15.25;3.70;;;6.30;99.90;;;;;;5077266;28;20066;-73
2023/12/22 08:01:05;;;;;;;18.30;3.35;;;6.40;99.90;;;;;;5076065;28;20447;-73
2023/12/22 08:03:33;;;;;;;15.52;3.38;;;6.40;99.90;;;;;;5079964;28;20044;-73
2023/12/22 08:06:00;;;;;;;14.35;4.25;;;6.40;99.90;;;;;;5083806;28;20047;-74
2023/12/22 08:08:27;;;;;;;15.43;3.80;;;6.40;99.90;;;;;;5095724;28;20093;-73
2023/12/22 08:10:54;;;;;;;12.50;3.53;;;6.40;99.90;;;;;;5096602;28;20548;-74
2023/12/22 08:13:21;;;;;;;15.85;3.40;;;6.40;99.90;;;;;;5086077;28;20102;-72
2023/12/22 08:15:47;;;;;;;19.40;4.50;;;6.40;99.90;;;;;;5073982;28;20048;-74
2023/12/22 08:18:14;;;;;;;12.77;3.90;;;6.40;99.90;;;;;;5077213;28;20048;-74
2023/12/22 08:20:43;;;;;;;19.85;4.10;;;6.50;99.90;;;;;;5077171;28;20450;-73
2023/12/22 08:23:12;;;;;;;21.98;4.65;;;6.50;99.90;;;;;;5076516;28;20056;-73
2023/12/22 08:25:40;;;;;;;14.25;3.92;;;6.50;99.90;;;;;;5077364;28;20143;-74
2023/12/22 08:28:07;;;;;;;12.25;3.50;;;6.50;99.90;;;;;;5096287;28;20480;-73
2023/12/22 08:30:34;;;;;;;30.85;5.80;;;6.50;99.90;;;;;;5089681;28;20404;-73
2023/12/22 08:33:01;;;;;;;13.43;4.03;;;6.50;99.90;;;;;;5076604;28;20075;-73
2023/12/22 08:35:28;;;;;;;28.20;4.70;;;6.50;99.90;;;;;;5075619;28;20086;-73
2023/12/22 08:37:57;;;;;;;16.00;3.97;;;6.50;99.90;;;;;;5076748;28;20048;-73
2023/12/22 08:40:26;;;;;;;15.98;4.43;;;6.40;99.90;;;;;;5076772;28;20101;-73
2023/12/22 08:42:59;;;;;;;18.48;3.53;;;6.50;99.90;;;;;;5076367;28;20408;-73
2023/12/22 08:45:28;;;;;;;16.73;3.05;;;6.50;99.90;;;;;;5073270;28;20438;-73
2023/12/22 08:47:55;;;;;;;14.38;3.78;;;6.50;99.90;;;;;;5068895;28;20055;-73
2023/12/22 08:50:22;;;;;;;17.85;3.75;;;6.50;99.90;;;;;;5079214;28;20044;-73
2023/12/22 08:52:49;;;;;;;14.40;3.25;;;6.50;99.90;;;;;;5089396;28;20048;-73
2023/12/22 08:55:17;;;;;;;15.43;3.30;;;6.50;99.90;;;;;;5072221;28;20053;-73
2023/12/22 08:57:44;;;;;;;14.52;4.30;;;6.40;99.90;;;;;;5071599;28;20041;-73
2023/12/22 09:00:12;;;;;;;14.40;3.67;;;6.40;99.90;;;;;;5071849;28;20383;-74
2023/12/22 09:02:39;;;;;;;19.05;4.95;;;6.40;99.90;;;;;;5080175;28;20044;-73
2023/12/22 09:05:07;;;;;;;16.80;3.92;;;6.40;99.90;;;;;;5084270;28;20056;-73
2023/12/22 09:07:34;;;;;;;14.52;3.95;;;6.50;99.90;;;;;;5072578;28;20127;-73
2023/12/22 09:10:01;;;;;;;16.67;2.83;;;6.80;99.90;;;;;;5071971;28;20044;-74
2023/12/22 09:12:30;;;;;;;10.30;2.55;;;6.90;99.90;;;;;;5074760;28;20393;-74
2023/12/22 09:14:58;;;;;;;12.60;3.00;;;6.90;99.90;;;;;;5076754;28;20467;-73
2023/12/22 09:17:27;;;;;;;9.70;2.53;;;6.80;99.90;;;;;;5071831;28;20111;-73
2023/12/22 09:19:54;;;;;;;15.70;4.00;;;6.90;99.90;;;;;;5070125;28;20493;-74
2023/12/22 09:22:22;;;;;;;20.15;3.83;;;6.80;99.90;;;;;;5070544;28;20055;-73
2023/12/22 09:24:49;;;;;;;19.10;3.83;;;6.80;99.90;;;;;;5068455;28;20553;-73
2023/12/22 09:27:16;;;;;;;16.33;2.63;;;6.80;99.90;;;;;;5072083;28;20099;-72
2023/12/22 09:29:44;;;;;;;10.13;3.00;;;6.80;99.90;;;;;;5070253;28;20045;-73
2023/12/22 09:32:11;;;;;;;12.00;2.90;;;6.80;99.90;;;;;;5071476;28;20045;-73
2023/12/22 09:34:39;;;;;;;13.80;3.60;;;6.80;99.90;;;;;;5070327;28;20068;-74
2023/12/22 09:37:06;;;;;;;9.38;2.70;;;6.80;99.90;;;;;;5072492;28;20098;-73
2023/12/22 09:39:32;;;;;;;11.32;2.90;;;6.80;99.90;;;;;;5070119;28;20041;-73
2023/12/22 09:41:59;;;;;;;12.38;2.85;;;6.80;99.90;;;;;;5072481;28;20048;-73
2023/12/22 09:44:32;;;;;;;11.13;2.90;;;6.80;99.90;;;;;;5072418;28;20098;-73
2023/12/22 09:47:04;;;;;;;9.35;2.45;;;6.80;99.90;;;;;;5072981;28;20055;-73
2023/12/22 09:49:32;;;;;;;15.73;3.03;;;6.80;99.90;;;;;;5077562;28;20572;-73
2023/12/22 09:51:59;;;;;;;10.85;2.53;;;6.80;99.90;;;;;;5074691;28;20106;-72
2023/12/22 09:54:26;;;;;;;10.15;2.80;;;6.90;99.90;;;;;;5072234;28;20055;-73
2023/12/22 09:56:54;;;;;;;9.73;2.80;;;6.90;99.90;;;;;;5079042;28;20142;-73
2023/12/22 09:59:24;;;;;;;10.15;2.60;;;7.00;99.90;;;;;;5072016;28;20052;-73
2023/12/22 10:01:53;;;;;;;10.55;3.38;;;7.00;99.90;;;;;;5073093;28;20044;-73
2023/12/22 10:04:22;;;;;;;9.52;2.53;;;7.10;99.90;;;;;;5072763;28;20055;-72
2023/12/22 10:06:49;;;;;;;11.57;2.40;;;7.10;99.90;;;;;;5074595;28;20044;-73
2023/12/22 10:09:17;;;;;;;15.20;2.80;;;7.20;99.90;;;;;;5075803;28;20047;-73
2023/12/22 10:11:45;;;;;;;11.18;2.30;;;7.10;99.90;;;;;;5074104;28;20440;-73
2023/12/22 10:14:20;;;;;;;12.93;2.97;;;7.20;99.90;;;;;;5074245;28;20076;-73
2023/12/22 10:16:47;;;;;;;7.40;2.30;;;7.20;99.90;;;;;;5075101;28;20043;-73
2023/12/22 10:19:15;;;;;;;10.15;2.35;;;7.20;99.90;;;;;;5078775;28;20115;-73
2023/12/22 10:21:43;;;;;;;10.23;2.55;;;7.20;99.90;;;;;;5079089;28;20052;-73
2023/12/22 10:24:42;;;;;;;9.05;2.95;;;7.20;99.90;;;;;;5076867;28;20469;-74
2023/12/22 10:27:09;;;;;;;14.00;3.22;;;7.20;99.90;;;;;;5071721;28;20052;-73
2023/12/22 10:29:36;;;;;;;11.73;3.28;;;7.20;99.90;;;;;;5073965;28;20458;-74
2023/12/22 10:32:04;;;;;;;11.80;2.85;;;7.20;99.90;;;;;;5074018;28;20040;-74
2023/12/22 10:34:31;;;;;;;17.58;3.25;;;7.30;99.90;;;;;;5076110;28;20052;-74
2023/12/22 10:37:00;;;;;;;18.40;4.25;;;7.30;99.90;;;;;;5074779;28;20051;-74
2023/12/22 10:39:28;;;;;;;10.00;3.15;;;7.30;99.90;;;;;;5074969;28;20499;-73
2023/12/22 10:41:55;;;;;;;16.77;3.20;;;7.40;99.90;;;;;;5071060;28;20139;-73
2023/12/22 10:44:25;;;;;;;11.25;3.17;;;7.40;99.90;;;;;;5072792;28;20104;-74
2023/12/22 10:46:52;;;;;;;11.98;3.63;;;7.40;99.90;;;;;;5085583;28;20051;-73
2023/12/22 10:49:19;;;;;;;11.82;3.58;;;7.40;99.90;;;;;;5071753;28;20052;-73
2023/12/22 10:51:46;;;;;;;17.40;3.72;;;7.50;99.90;;;;;;5062419;28;20044;-72
2023/12/22 10:54:14;;;;;;;15.45;3.70;;;7.50;99.90;;;;;;5071349;28;20109;-74
2023/12/22 10:56:41;;;;;;;13.65;3.85;;;7.40;99.90;;;;;;5081779;28;20073;-73
2023/12/22 10:59:09;;;;;;;13.38;3.80;;;7.50;99.90;;;;;;5075447;28;20105;-74
2023/12/22 11:01:38;;;;;;;10.95;3.45;;;7.50;99.90;;;;;;5073551;28;20077;-73
2023/12/22 11:04:08;;;;;;;8.43;2.90;;;7.50;99.90;;;;;;5082635;28;20083;-74
2023/12/22 11:06:36;;;;;;;12.87;3.07;;;7.50;99.90;;;;;;5073126;28;20095;-73
2023/12/22 11:09:07;;;;;;;10.70;2.65;;;7.40;99.90;;;;;;5102352;28;20380;-73
2023/12/22 11:11:38;;;;;;;13.95;3.72;;;7.50;99.90;;;;;;5089896;28;20476;-74
2023/12/22 11:14:06;;;;;;;10.23;2.77;;;7.50;99.90;;;;;;5074826;28;20109;-73
2023/12/22 11:16:34;;;;;;;15.82;2.90;;;7.50;99.90;;;;;;5074298;28;20291;-73
2023/12/22 11:19:02;;;;;;;11.30;2.92;;;7.70;99.90;;;;;;5074352;28;20043;-73
2023/12/22 11:21:30;;;;;;;12.13;3.08;;;7.60;99.90;;;;;;5081959;28;20048;-73
2023/12/22 11:23:58;;;;;;;12.70;2.88;;;7.60;99.90;;;;;;5076247;28;20087;-73
2023/12/22 11:26:25;;;;;;;12.88;4.15;;;7.60;99.90;;;;;;5076322;28;20406;-73
2023/12/22 11:28:54;;;;;;;11.95;3.28;;;7.60;99.90;;;;;;5077435;28;20082;-73
2023/12/22 11:31:21;;;;;;;10.27;3.15;;;7.60;99.90;;;;;;5081674;28;20044;-73
2023/12/22 11:33:49;;;;;;;12.05;3.20;;;7.60;99.90;;;;;;5077294;28;20105;-74
2023/12/22 11:36:17;;;;;;;17.02;4.15;;;7.60;99.90;;;;;;5075324;28;20476;-74
2023/12/22 11:38:46;;;;;;;12.00;3.40;;;7.70;99.90;;;;;;5076747;28;20120;-73
2023/12/22 11:41:16;;;;;;;12.98;3.58;;;7.70;99.90;;;;;;5076907;28;20454;-73
2023/12/22 11:43:45;;;;;;;;;;;7.70;99.90;;;;;;5075441;28;20125;-73
2023/12/22 11:46:13;;;;;;;12.15;4.18;;;7.70;99.90;;;;;;5090143;28;19973;-73
2023/12/22 11:48:48;;;;;;;12.52;2.78;;;7.70;99.90;;;;;;5076787;28;20044;-73
2023/12/22 11:51:15;;;;;;;10.00;3.33;;;7.70;99.90;;;;;;5073953;28;20064;-73
2023/12/22 11:53:43;;;;;;;12.30;3.05;;;7.70;99.90;;;;;;5072645;28;20048;-73
2023/12/22 11:56:10;;;;;;;13.50;3.33;;;7.70;99.90;;;;;;5073229;28;20061;-74
2023/12/22 11:58:39;;;;;;;18.67;3.78;;;7.70;99.90;;;;;;5075995;28;20044;-73
2023/12/22 12:01:10;;;;;;;14.80;3.25;;;7.60;99.90;;;;;;5075257;28;20442;-73
2023/12/22 12:03:41;;;;;;;11.70;3.80;;;7.80;99.90;;;;;;5084271;28;20047;-73
2023/12/22 12:06:15;;;;;;;13.52;3.45;;;7.70;99.90;;;;;;5075351;28;20045;-73
2023/12/22 12:08:42;;;;;;;12.18;3.13;;;7.70;99.90;;;;;;5092763;28;20044;-73
2023/12/22 12:11:09;;;;;;;18.58;3.33;;;7.70;99.90;;;;;;5075960;28;20071;-73
2023/12/22 12:13:43;;;;;;;12.75;3.03;;;7.70;99.90;;;;;;5074428;28;20052;-73
2023/12/22 12:16:12;;;;;;;17.38;2.90;;;7.70;99.90;;;;;;5074239;28;20135;-73
2023/12/22 12:18:41;;;;;;;12.23;2.75;;;7.60;99.90;;;;;;5072931;28;20569;-73
2023/12/22 12:21:08;;;;;;;9.90;3.13;;;7.70;99.90;;;;;;5074352;28;20078;-73
2023/12/22 12:23:36;;;;;;;20.23;4.05;;;7.70;99.90;;;;;;5079306;28;20564;-73
2023/12/22 12:26:03;;;;;;;15.52;2.90;;;7.60;99.90;;;;;;5094944;28;20040;-73
2023/12/22 12:28:32;;;;;;;10.68;2.78;;;7.70;99.90;;;;;;5086532;28;20048;-73
2023/12/22 12:31:00;;;;;;;13.77;3.17;;;7.70;99.90;;;;;;5076233;28;20044;-73
2023/12/22 12:33:27;;;;;;;9.50;3.40;;;7.70;99.90;;;;;;5073874;28;20072;-73
2023/12/22 12:35:58;;;;;;;16.77;3.17;;;7.70;99.90;;;;;;5079900;28;20777;-74
2023/12/22 12:38:36;;;;;;;13.80;3.00;;;7.60;99.90;;;;;;5095701;28;20044;-74
2023/12/22 12:41:05;;;;;;;12.80;2.85;;;7.60;99.90;;;;;;5074581;28;20045;-74
2023/12/22 12:43:32;;;;;;;10.98;2.40;;;7.60;99.90;;;;;;5076128;28;20044;-73
2023/12/22 12:46:04;;;;;;;10.00;2.38;;;7.60;99.90;;;;;;5076185;28;20105;-73
2023/12/22 12:48:31;;;;;;;9.07;2.00;;;7.60;99.90;;;;;;5075657;28;20461;-72
2023/12/22 12:51:04;;;;;;;13.23;2.70;;;7.50;99.90;;;;;;5089371;28;20051;-73